sensor_id;sensor_type;location;lat;lon;timestamp;pressure;altitude;pressure_sealevel;temperature;humidity
56334;BME280;42240;53.626;55.886;2023-01-29T00:00:15;79397.31;;;-145.10;100.00
56334;BME280;42240;53.626;55.886;2023-01-29T00:01:49;79448.78;;;-145.10;100.00
56334;BME280;42240;53.626;55.886;2023-01-29T00:03:22;79393.38;;;-145.10;100.00
56334;BME280;42240;53.626;55.886;2023-01-29T00:04:55;79395.34;;;-145.10;100.00
56334;BME280;42240;53.626;55.886;2023-01-29T00:06:30;79397.31;;;-145.10;100.00
56334;BME280;42240;53.626;55.886;2023-01-29T00:08:03;79407.22;;;-145.10;100.00
56334;BME280;42240;53.626;55.886;2023-01-29T00:09:36;79395.34;;;-145.10;100.00
56334;BME280;42240;53.626;55.886;2023-01-29T00:11:09;79409.19;;;-145.10;100.00
56334;BME280;42240;53.626;55.886;2023-01-29T00:12:42;79389.41;;;-145.10;100.00
56334;BME280;42240;53.626;55.886;2023-01-29T00:14:15;79395.34;;;-145.10;100.00
56334;BME280;42240;53.626;55.886;2023-01-29T00:15:56;79389.41;;;-145.10;100.00
56334;BME280;42240;53.626;55.886;2023-01-29T00:17:29;79401.28;;;-145.10;100.00
56334;BME280;42240;53.626;55.886;2023-01-29T00:19:02;79397.31;;;-145.10;100.00
56334;BME280;42240;53.626;55.886;2023-01-29T00:20:35;79409.19;;;-145.10;100.00
56334;BME280;42240;53.626;55.886;2023-01-29T00:22:08;79417.13;;;-145.10;100.00
56334;BME280;42240;53.626;55.886;2023-01-29T00:23:42;79423.03;;;-145.10;100.00
56334;BME280;42240;53.626;55.886;2023-01-29T00:25:14;79411.19;;;-145.10;100.00
56334;BME280;42240;53.626;55.886;2023-01-29T00:26:47;79423.03;;;-145.10;100.00
56334;BME280;42240;53.626;55.886;2023-01-29T00:28:21;79448.78;;;-145.10;100.00
56334;BME280;42240;53.626;55.886;2023-01-29T00:29:54;79454.72;;;-145.10;100.00
56334;BME280;42240;53.626;55.886;2023-01-29T00:31:48;79577.41;;;-145.10;100.00
56334;BME280;42240;53.626;55.886;2023-01-29T00:33:21;79456.69;;;-145.10;100.00
56334;BME280;42240;53.626;55.886;2023-01-29T00:34:54;79446.78;;;-145.10;100.00
56334;BME280;42240;53.626;55.886;2023-01-29T00:36:27;79432.94;;;-145.10;100.00
56334;BME280;42240;53.626;55.886;2023-01-29T00:38:00;79440.84;;;-145.10;100.00
56334;BME280;42240;53.626;55.886;2023-01-29T00:39:33;79448.78;;;-145.10;100.00
56334;BME280;42240;53.626;55.886;2023-01-29T00:41:20;79432.94;;;-145.10;100.00
56334;BME280;42240;53.626;55.886;2023-01-29T00:43:11;79417.13;;;-145.10;100.00
56334;BME280;42240;53.626;55.886;2023-01-29T00:45:03;79434.91;;;-145.10;100.00
56334;BME280;42240;53.626;55.886;2023-01-29T00:46:36;79427.00;;;-145.10;100.00
56334;BME280;42240;53.626;55.886;2023-01-29T00:48:10;79464.59;;;-145.10;100.00
56334;BME280;42240;53.626;55.886;2023-01-29T00:49:42;79484.38;;;-145.10;100.00
56334;BME280;42240;53.626;55.886;2023-01-29T00:51:15;79472.53;;;-145.10;100.00
56334;BME280;42240;53.626;55.886;2023-01-29T00:52:48;79460.66;;;-145.10;100.00
56334;BME280;42240;53.626;55.886;2023-01-29T00:54:23;79462.63;;;-145.10;100.00
56334;BME280;42240;53.626;55.886;2023-01-29T00:55:56;79476.47;;;-145.10;100.00
56334;BME280;42240;53.626;55.886;2023-01-29T00:57:31;79626.88;;;-145.10;100.00
56334;BME280;42240;53.626;55.886;2023-01-29T00:59:04;79498.25;;;-145.10;100.00
56334;BME280;42240;53.626;55.886;2023-01-29T01:00:37;79480.44;;;-145.10;100.00
56334;BME280;42240;53.626;55.886;2023-01-29T01:02:10;79480.44;;;-145.10;100.00
56334;BME280;42240;53.626;55.886;2023-01-29T01:04:01;79492.31;;;-145.10;100.00
56334;BME280;42240;53.626;55.886;2023-01-29T01:05:34;79488.34;;;-145.10;100.00
56334;BME280;42240;53.626;55.886;2023-01-29T01:07:08;79472.53;;;-145.10;100.00
56334;BME280;42240;53.626;55.886;2023-01-29T01:08:41;79480.44;;;-145.10;100.00
56334;BME280;42240;53.626;55.886;2023-01-29T01:10:32;79494.28;;;-145.10;100.00
56334;BME280;42240;53.626;55.886;2023-01-29T01:12:09;79476.47;;;-145.10;100.00
56334;BME280;42240;53.626;55.886;2023-01-29T01:13:41;79476.47;;;-145.10;100.00
56334;BME280;42240;53.626;55.886;2023-01-29T01:15:15;79488.34;;;-145.10;100.00
56334;BME280;42240;53.626;55.886;2023-01-29T01:16:49;79472.53;;;-145.10;100.00
56334;BME280;42240;53.626;55.886;2023-01-29T01:18:22;79474.50;;;-145.10;100.00
56334;BME280;42240;53.626;55.886;2023-01-29T01:19:55;79472.53;;;-145.10;100.00
56334;BME280;42240;53.626;55.886;2023-01-29T01:21:28;79464.59;;;-145.10;100.00
56334;BME280;42240;53.626;55.886;2023-01-29T01:23:01;79474.50;;;-145.10;100.00
56334;BME280;42240;53.626;55.886;2023-01-29T01:24:34;79476.47;;;-145.10;100.00
56334;BME280;42240;53.626;55.886;2023-01-29T01:26:08;79480.44;;;-145.10;100.00
56334;BME280;42240;53.626;55.886;2023-01-29T01:27:42;79476.47;;;-145.10;100.00
56334;BME280;42240;53.626;55.886;2023-01-29T01:29:15;79482.41;;;-145.10;100.00
56334;BME280;42240;53.626;55.886;2023-01-29T01:30:48;79496.25;;;-145.10;100.00
56334;BME280;42240;53.626;55.886;2023-01-29T01:32:21;79498.25;;;-145.10;100.00
56334;BME280;42240;53.626;55.886;2023-01-29T01:33:54;79488.34;;;-145.10;100.00
56334;BME280;42240;53.626;55.886;2023-01-29T01:35:27;79470.53;;;-145.10;100.00
56334;BME280;42240;53.626;55.886;2023-01-29T01:37:00;79504.19;;;-145.10;100.00
56334;BME280;42240;53.626;55.886;2023-01-29T01:38:37;79464.59;;;-145.10;100.00
56334;BME280;42240;53.626;55.886;2023-01-29T01:40:19;79549.69;;;-145.10;100.00
56334;BME280;42240;53.626;55.886;2023-01-29T01:41:52;79464.59;;;-145.10;100.00
56334;BME280;42240;53.626;55.886;2023-01-29T01:43:25;79456.69;;;-145.10;100.00
56334;BME280;42240;53.626;55.886;2023-01-29T01:45:03;79468.56;;;-145.10;100.00
56334;BME280;42240;53.626;55.886;2023-01-29T01:46:38;79482.41;;;-145.10;100.00
56334;BME280;42240;53.626;55.886;2023-01-29T01:49:48;79476.47;;;-145.10;100.00
56334;BME280;42240;53.626;55.886;2023-01-29T01:51:23;79616.97;;;-145.10;100.00
56334;BME280;42240;53.626;55.886;2023-01-29T01:53:03;79482.41;;;-145.10;100.00
56334;BME280;42240;53.626;55.886;2023-01-29T01:54:38;79480.44;;;-145.10;100.00
56334;BME280;42240;53.626;55.886;2023-01-29T01:56:22;79492.31;;;-145.10;100.00
56334;BME280;42240;53.626;55.886;2023-01-29T01:58:11;79480.44;;;-145.10;100.00
56334;BME280;42240;53.626;55.886;2023-01-29T01:59:48;79615.00;;;-145.10;100.00
56334;BME280;42240;53.626;55.886;2023-01-29T02:01:24;79456.69;;;-145.10;100.00
56334;BME280;42240;53.626;55.886;2023-01-29T02:03:01;79456.69;;;-145.10;100.00
56334;BME280;42240;53.626;55.886;2023-01-29T02:04:55;79456.69;;;-145.10;100.00
56334;BME280;42240;53.626;55.886;2023-01-29T02:06:47;79490.31;;;-145.10;100.00
56334;BME280;42240;53.626;55.886;2023-01-29T02:10:46;79462.63;;;-145.10;100.00
56334;BME280;42240;53.626;55.886;2023-01-29T02:12:20;79458.66;;;-145.10;100.00
56334;BME280;42240;53.626;55.886;2023-01-29T02:13:54;79444.81;;;-145.10;100.00
56334;BME280;42240;53.626;55.886;2023-01-29T02:15:29;79476.47;;;-145.10;100.00
56334;BME280;42240;53.626;55.886;2023-01-29T02:17:03;79452.72;;;-145.10;100.00
56334;BME280;42240;53.626;55.886;2023-01-29T02:18:38;79468.56;;;-145.10;100.00
56334;BME280;42240;53.626;55.886;2023-01-29T02:27:26;79450.75;;;-145.10;100.00
56334;BME280;42240;53.626;55.886;2023-01-29T02:40:06;79444.81;;;-145.10;100.00
56334;BME280;42240;53.626;55.886;2023-01-29T02:48:21;79428.97;;;-145.10;100.00
56334;BME280;42240;53.626;55.886;2023-01-29T02:50:28;79409.19;;;-145.10;100.00
56334;BME280;42240;53.626;55.886;2023-01-29T02:54:02;79559.59;;;-145.10;100.00
56334;BME280;42240;53.626;55.886;2023-01-29T02:55:55;79417.13;;;-145.10;100.00
56334;BME280;42240;53.626;55.886;2023-01-29T02:57:35;79518.03;;;-145.10;100.00
56334;BME280;42240;53.626;55.886;2023-01-29T02:59:28;79423.03;;;-145.10;100.00
56334;BME280;42240;53.626;55.886;2023-01-29T03:01:14;79413.16;;;-145.10;100.00
56334;BME280;42240;53.626;55.886;2023-01-29T03:03:01;79432.94;;;-145.10;100.00
56334;BME280;42240;53.626;55.886;2023-01-29T03:04:40;79482.41;;;-145.10;100.00
56334;BME280;42240;53.626;55.886;2023-01-29T03:06:24;79452.72;;;-145.10;100.00
56334;BME280;42240;53.626;55.886;2023-01-29T03:08:11;79436.91;;;-145.10;100.00
56334;BME280;42240;53.626;55.886;2023-01-29T03:09:51;79432.94;;;-145.10;100.00
56334;BME280;42240;53.626;55.886;2023-01-29T03:11:29;79425.03;;;-145.10;100.00
56334;BME280;42240;53.626;55.886;2023-01-29T03:13:15;79417.13;;;-145.10;100.00
56334;BME280;42240;53.626;55.886;2023-01-29T03:14:50;79430.97;;;-145.10;100.00
56334;BME280;42240;53.626;55.886;2023-01-29T03:16:49;79415.13;;;-145.10;100.00
56334;BME280;42240;53.626;55.886;2023-01-29T03:18:24;79413.16;;;-145.10;100.00
56334;BME280;42240;53.626;55.886;2023-01-29T03:20:07;79399.31;;;-145.10;100.00
56334;BME280;42240;53.626;55.886;2023-01-29T03:21:49;79421.06;;;-145.10;100.00
56334;BME280;42240;53.626;55.886;2023-01-29T03:23:35;79409.19;;;-145.10;100.00
56334;BME280;42240;53.626;55.886;2023-01-29T03:25:27;79417.13;;;-145.10;100.00
56334;BME280;42240;53.626;55.886;2023-01-29T03:27:26;79411.19;;;-145.10;100.00
56334;BME280;42240;53.626;55.886;2023-01-29T03:29:19;79409.19;;;-145.10;100.00
56334;BME280;42240;53.626;55.886;2023-01-29T03:31:12;79411.19;;;-145.10;100.00
56334;BME280;42240;53.626;55.886;2023-01-29T03:33:08;79446.78;;;-145.10;100.00
56334;BME280;42240;53.626;55.886;2023-01-29T03:34:47;79389.41;;;-145.10;100.00
56334;BME280;42240;53.626;55.886;2023-01-29T03:36:33;79375.56;;;-145.10;100.00
56334;BME280;42240;53.626;55.886;2023-01-29T03:38:11;79389.41;;;-145.10;100.00
56334;BME280;42240;53.626;55.886;2023-01-29T03:39:44;79391.38;;;-145.10;100.00
56334;BME280;42240;53.626;55.886;2023-01-29T03:41:22;79387.44;;;-145.10;100.00
56334;BME280;42240;53.626;55.886;2023-01-29T03:44:57;79391.38;;;-145.10;100.00
56334;BME280;42240;53.626;55.886;2023-01-29T03:46:51;79385.44;;;-145.10;100.00
56334;BME280;42240;53.626;55.886;2023-01-29T03:48:37;79389.41;;;-145.10;100.00
56334;BME280;42240;53.626;55.886;2023-01-29T03:54:20;79460.66;;;-145.10;100.00
56334;BME280;42240;53.626;55.886;2023-01-29T03:57:39;79381.50;;;-145.10;100.00
56334;BME280;42240;53.626;55.886;2023-01-29T04:01:24;79387.44;;;-145.10;100.00
56334;BME280;42240;53.626;55.886;2023-01-29T04:03:08;79385.44;;;-145.10;100.00
56334;BME280;42240;53.626;55.886;2023-01-29T04:04:47;79389.41;;;-145.10;100.00
56334;BME280;42240;53.626;55.886;2023-01-29T04:06:28;79385.44;;;-145.10;100.00
56334;BME280;42240;53.626;55.886;2023-01-29T04:08:10;79401.28;;;-145.10;100.00
56334;BME280;42240;53.626;55.886;2023-01-29T04:09:49;79397.31;;;-145.10;100.00
56334;BME280;42240;53.626;55.886;2023-01-29T04:11:23;79393.38;;;-145.10;100.00
56334;BME280;42240;53.626;55.886;2023-01-29T04:13:02;79397.31;;;-145.10;100.00
56334;BME280;42240;53.626;55.886;2023-01-29T04:14:37;79377.53;;;-145.10;100.00
56334;BME280;42240;53.626;55.886;2023-01-29T04:16:28;79432.94;;;-145.10;100.00
56334;BME280;42240;53.626;55.886;2023-01-29T04:18:24;79363.69;;;-145.10;100.00
56334;BME280;42240;53.626;55.886;2023-01-29T04:20:08;79381.50;;;-145.10;100.00
56334;BME280;42240;53.626;55.886;2023-01-29T04:21:42;79357.75;;;-145.10;100.00
56334;BME280;42240;53.626;55.886;2023-01-29T04:23:23;79351.81;;;-145.10;100.00
56334;BME280;42240;53.626;55.886;2023-01-29T04:24:59;79353.78;;;-145.10;100.00
56334;BME280;42240;53.626;55.886;2023-01-29T04:28:32;79387.44;;;-145.10;100.00
56334;BME280;42240;53.626;55.886;2023-01-29T04:36:23;79357.75;;;-145.10;100.00
56334;BME280;42240;53.626;55.886;2023-01-29T04:38:05;79349.84;;;-145.10;100.00
56334;BME280;42240;53.626;55.886;2023-01-29T04:40:03;79349.84;;;-145.10;100.00
56334;BME280;42240;53.626;55.886;2023-01-29T04:41:51;79347.84;;;-145.10;100.00
56334;BME280;42240;53.626;55.886;2023-01-29T04:43:34;79345.88;;;-145.10;100.00
56334;BME280;42240;53.626;55.886;2023-01-29T04:45:23;79345.88;;;-145.10;100.00
56334;BME280;42240;53.626;55.886;2023-01-29T04:51:15;79353.78;;;-145.10;100.00
56334;BME280;42240;53.626;55.886;2023-01-29T04:53:07;79355.78;;;-145.10;100.00
56334;BME280;42240;53.626;55.886;2023-01-29T04:55:15;79343.91;;;-145.10;100.00
56334;BME280;42240;53.626;55.886;2023-01-29T04:57:05;79349.84;;;-145.10;100.00
56334;BME280;42240;53.626;55.886;2023-01-29T04:58:50;79349.84;;;-145.10;100.00
56334;BME280;42240;53.626;55.886;2023-01-29T05:00:32;79353.78;;;-145.10;100.00
56334;BME280;42240;53.626;55.886;2023-01-29T05:02:08;79365.66;;;-145.10;100.00
56334;BME280;42240;53.626;55.886;2023-01-29T05:03:44;79377.53;;;-145.10;100.00
56334;BME280;42240;53.626;55.886;2023-01-29T05:05:19;79367.63;;;-145.10;100.00
56334;BME280;42240;53.626;55.886;2023-01-29T05:06:52;79367.63;;;-145.10;100.00
56334;BME280;42240;53.626;55.886;2023-01-29T05:08:27;79504.19;;;-145.10;100.00
56334;BME280;42240;53.626;55.886;2023-01-29T05:10:04;79361.69;;;-145.10;100.00
56334;BME280;42240;53.626;55.886;2023-01-29T05:11:38;79377.53;;;-145.10;100.00
56334;BME280;42240;53.626;55.886;2023-01-29T05:13:13;79369.63;;;-145.10;100.00
56334;BME280;42240;53.626;55.886;2023-01-29T05:14:48;79369.63;;;-145.10;100.00
56334;BME280;42240;53.626;55.886;2023-01-29T05:16:29;79365.66;;;-145.10;100.00
56334;BME280;42240;53.626;55.886;2023-01-29T05:18:13;79357.75;;;-145.10;100.00
56334;BME280;42240;53.626;55.886;2023-01-29T05:19:46;79405.25;;;-145.10;100.00
56334;BME280;42240;53.626;55.886;2023-01-29T05:21:20;79337.97;;;-145.10;100.00
56334;BME280;42240;53.626;55.886;2023-01-29T05:22:55;79334.00;;;-145.10;100.00
56334;BME280;42240;53.626;55.886;2023-01-29T05:24:28;79345.88;;;-145.10;100.00
56334;BME280;42240;53.626;55.886;2023-01-29T05:26:01;79337.97;;;-145.10;100.00
56334;BME280;42240;53.626;55.886;2023-01-29T05:27:34;79330.03;;;-145.10;100.00
56334;BME280;42240;53.626;55.886;2023-01-29T05:29:26;79334.00;;;-145.10;100.00
56334;BME280;42240;53.626;55.886;2023-01-29T05:31:00;79472.53;;;-145.10;100.00
56334;BME280;42240;53.626;55.886;2023-01-29T05:32:33;79326.09;;;-145.10;100.00
56334;BME280;42240;53.626;55.886;2023-01-29T05:34:06;79334.00;;;-145.10;100.00
56334;BME280;42240;53.626;55.886;2023-01-29T05:35:39;79332.03;;;-145.10;100.00
56334;BME280;42240;53.626;55.886;2023-01-29T05:37:12;79322.13;;;-145.10;100.00
56334;BME280;42240;53.626;55.886;2023-01-29T05:38:45;79322.13;;;-145.10;100.00
56334;BME280;42240;53.626;55.886;2023-01-29T05:40:18;79314.22;;;-145.10;100.00
56334;BME280;42240;53.626;55.886;2023-01-29T05:41:51;79318.16;;;-145.10;100.00
56334;BME280;42240;53.626;55.886;2023-01-29T05:43:24;79310.25;;;-145.10;100.00
56334;BME280;42240;53.626;55.886;2023-01-29T05:44:57;79306.31;;;-145.10;100.00
56334;BME280;42240;53.626;55.886;2023-01-29T05:46:30;79306.31;;;-145.10;100.00
56334;BME280;42240;53.626;55.886;2023-01-29T05:48:03;79310.25;;;-145.10;100.00
56334;BME280;42240;53.626;55.886;2023-01-29T05:49:36;79286.50;;;-145.10;100.00
56334;BME280;42240;53.626;55.886;2023-01-29T05:51:10;79302.34;;;-145.10;100.00
56334;BME280;42240;53.626;55.886;2023-01-29T05:52:43;79290.47;;;-145.10;100.00
56334;BME280;42240;53.626;55.886;2023-01-29T05:54:16;79290.47;;;-145.10;100.00
56334;BME280;42240;53.626;55.886;2023-01-29T05:55:49;79286.50;;;-145.10;100.00
56334;BME280;42240;53.626;55.886;2023-01-29T05:57:22;79274.63;;;-145.10;100.00
56334;BME280;42240;53.626;55.886;2023-01-29T05:58:55;79367.63;;;-145.10;100.00
56334;BME280;42240;53.626;55.886;2023-01-29T06:00:28;79274.63;;;-145.10;100.00
56334;BME280;42240;53.626;55.886;2023-01-29T06:02:01;79296.41;;;-145.10;100.00
56334;BME280;42240;53.626;55.886;2023-01-29T06:03:34;79300.38;;;-145.10;100.00
56334;BME280;42240;53.626;55.886;2023-01-29T06:05:08;79302.34;;;-145.10;100.00
56334;BME280;42240;53.626;55.886;2023-01-29T06:06:41;79304.31;;;-145.10;100.00
56334;BME280;42240;53.626;55.886;2023-01-29T06:08:14;79292.44;;;-145.10;100.00
56334;BME280;42240;53.626;55.886;2023-01-29T06:09:47;79286.50;;;-145.10;100.00
56334;BME280;42240;53.626;55.886;2023-01-29T06:11:20;79290.47;;;-145.10;100.00
56334;BME280;42240;53.626;55.886;2023-01-29T06:12:54;79322.13;;;-145.10;100.00
56334;BME280;42240;53.626;55.886;2023-01-29T06:14:27;79274.63;;;-145.10;100.00
56334;BME280;42240;53.626;55.886;2023-01-29T06:15:59;79280.56;;;-145.10;100.00
56334;BME280;42240;53.626;55.886;2023-01-29T06:17:32;79268.72;;;-145.10;100.00
56334;BME280;42240;53.626;55.886;2023-01-29T06:19:05;79266.72;;;-145.10;100.00
56334;BME280;42240;53.626;55.886;2023-01-29T06:20:38;79278.59;;;-145.10;100.00
56334;BME280;42240;53.626;55.886;2023-01-29T06:22:11;79278.59;;;-145.10;100.00
56334;BME280;42240;53.626;55.886;2023-01-29T06:23:44;79286.50;;;-145.10;100.00
56334;BME280;42240;53.626;55.886;2023-01-29T06:25:17;79266.72;;;-145.10;100.00
56334;BME280;42240;53.626;55.886;2023-01-29T06:26:50;79254.84;;;-145.10;100.00
56334;BME280;42240;53.626;55.886;2023-01-29T06:28:24;79252.88;;;-145.10;100.00
56334;BME280;42240;53.626;55.886;2023-01-29T06:29:57;79260.78;;;-145.10;100.00
56334;BME280;42240;53.626;55.886;2023-01-29T06:31:30;79250.91;;;-145.10;100.00
56334;BME280;42240;53.626;55.886;2023-01-29T06:33:10;79262.78;;;-145.10;100.00
56334;BME280;42240;53.626;55.886;2023-01-29T06:34:43;79282.56;;;-145.10;100.00
56334;BME280;42240;53.626;55.886;2023-01-29T06:36:18;79298.38;;;-145.10;100.00
56334;BME280;42240;53.626;55.886;2023-01-29T06:37:51;79254.84;;;-145.10;100.00
56334;BME280;42240;53.626;55.886;2023-01-29T06:39:24;79250.91;;;-145.10;100.00
56334;BME280;42240;53.626;55.886;2023-01-29T06:40:58;79237.03;;;-145.10;100.00
56334;BME280;42240;53.626;55.886;2023-01-29T06:42:34;79246.94;;;-145.10;100.00
56334;BME280;42240;53.626;55.886;2023-01-29T06:44:07;79225.16;;;-145.10;100.00
56334;BME280;42240;53.626;55.886;2023-01-29T06:45:54;79205.38;;;-145.10;100.00
56334;BME280;42240;53.626;55.886;2023-01-29T06:47:27;79213.31;;;-145.10;100.00
56334;BME280;42240;53.626;55.886;2023-01-29T06:49:01;79207.38;;;-145.10;100.00
56334;BME280;42240;53.626;55.886;2023-01-29T06:50:34;79207.38;;;-145.10;100.00
56334;BME280;42240;53.626;55.886;2023-01-29T06:52:07;79187.56;;;-145.10;100.00
56334;BME280;42240;53.626;55.886;2023-01-29T06:53:40;79203.41;;;-145.10;100.00
56334;BME280;42240;53.626;55.886;2023-01-29T06:55:16;79187.56;;;-145.10;100.00
56334;BME280;42240;53.626;55.886;2023-01-29T06:56:50;79193.50;;;-145.10;100.00
56334;BME280;42240;53.626;55.886;2023-01-29T06:58:24;79173.72;;;-145.10;100.00
56334;BME280;42240;53.626;55.886;2023-01-29T06:59:57;79199.44;;;-145.10;100.00
56334;BME280;42240;53.626;55.886;2023-01-29T07:01:30;79205.38;;;-145.10;100.00
56334;BME280;42240;53.626;55.886;2023-01-29T07:03:08;79197.47;;;-145.10;100.00
56334;BME280;42240;53.626;55.886;2023-01-29T07:04:42;79195.50;;;-145.10;100.00
56334;BME280;42240;53.626;55.886;2023-01-29T07:06:15;79179.66;;;-145.10;100.00
56334;BME280;42240;53.626;55.886;2023-01-29T07:07:48;79185.59;;;-145.10;100.00
56334;BME280;42240;53.626;55.886;2023-01-29T07:09:22;79179.66;;;-145.10;100.00
56334;BME280;42240;53.626;55.886;2023-01-29T07:11:01;79171.75;;;-145.10;100.00
56334;BME280;42240;53.626;55.886;2023-01-29T07:12:34;79229.13;;;-145.10;100.00
56334;BME280;42240;53.626;55.886;2023-01-29T07:14:07;79171.75;;;-145.10;100.00
56334;BME280;42240;53.626;55.886;2023-01-29T07:15:40;79276.63;;;-145.10;100.00
56334;BME280;42240;53.626;55.886;2023-01-29T07:17:14;79163.84;;;-145.10;100.00
56334;BME280;42240;53.626;55.886;2023-01-29T07:18:48;79203.41;;;-145.10;100.00
56334;BME280;42240;53.626;55.886;2023-01-29T07:20:23;79146.03;;;-145.10;100.00
56334;BME280;42240;53.626;55.886;2023-01-29T07:21:56;79151.97;;;-145.10;100.00
56334;BME280;42240;53.626;55.886;2023-01-29T07:23:29;79155.91;;;-145.10;100.00
56334;BME280;42240;53.626;55.886;2023-01-29T07:25:02;79140.09;;;-145.10;100.00
56334;BME280;42240;53.626;55.886;2023-01-29T07:26:35;79122.28;;;-145.10;100.00
56334;BME280;42240;53.626;55.886;2023-01-29T07:28:09;79199.44;;;-145.10;100.00
56334;BME280;42240;53.626;55.886;2023-01-29T07:29:42;79128.22;;;-145.10;100.00
56334;BME280;42240;53.626;55.886;2023-01-29T07:31:15;79110.41;;;-145.10;100.00
56334;BME280;42240;53.626;55.886;2023-01-29T07:32:48;79094.59;;;-145.10;100.00
56334;BME280;42240;53.626;55.886;2023-01-29T07:34:22;79110.41;;;-145.10;100.00
56334;BME280;42240;53.626;55.886;2023-01-29T07:35:55;79096.56;;;-145.10;100.00
56334;BME280;42240;53.626;55.886;2023-01-29T07:37:28;79104.47;;;-145.10;100.00
56334;BME280;42240;53.626;55.886;2023-01-29T07:39:01;79116.34;;;-145.10;100.00
56334;BME280;42240;53.626;55.886;2023-01-29T07:40:35;79128.22;;;-145.10;100.00
56334;BME280;42240;53.626;55.886;2023-01-29T07:42:08;79106.44;;;-145.10;100.00
56334;BME280;42240;53.626;55.886;2023-01-29T07:43:41;79122.28;;;-145.10;100.00
56334;BME280;42240;53.626;55.886;2023-01-29T07:45:14;79106.44;;;-145.10;100.00
56334;BME280;42240;53.626;55.886;2023-01-29T07:46:47;79096.56;;;-145.10;100.00
56334;BME280;42240;53.626;55.886;2023-01-29T07:48:20;79096.56;;;-145.10;100.00
56334;BME280;42240;53.626;55.886;2023-01-29T07:49:53;79080.72;;;-145.10;100.00
56334;BME280;42240;53.626;55.886;2023-01-29T07:51:26;79068.84;;;-145.10;100.00
56334;BME280;42240;53.626;55.886;2023-01-29T07:53:00;79068.84;;;-145.10;100.00
56334;BME280;42240;53.626;55.886;2023-01-29T07:54:33;79055.00;;;-145.10;100.00
56334;BME280;42240;53.626;55.886;2023-01-29T07:56:06;79057.00;;;-145.10;100.00
56334;BME280;42240;53.626;55.886;2023-01-29T07:57:39;79136.13;;;-145.10;100.00
56334;BME280;42240;53.626;55.886;2023-01-29T07:59:14;79076.78;;;-145.10;100.00
56334;BME280;42240;53.626;55.886;2023-01-29T08:00:47;79108.44;;;-145.10;100.00
56334;BME280;42240;53.626;55.886;2023-01-29T08:02:20;79100.53;;;-145.10;100.00
56334;BME280;42240;53.626;55.886;2023-01-29T08:03:53;79082.72;;;-145.10;100.00
56334;BME280;42240;53.626;55.886;2023-01-29T08:05:26;79096.56;;;-145.10;100.00
56334;BME280;42240;53.626;55.886;2023-01-29T08:07:00;79068.84;;;-145.10;100.00
56334;BME280;42240;53.626;55.886;2023-01-29T08:08:36;79076.78;;;-145.10;100.00
56334;BME280;42240;53.626;55.886;2023-01-29T08:10:10;79213.31;;;-145.10;100.00
56334;BME280;42240;53.626;55.886;2023-01-29T08:11:43;79068.84;;;-145.10;100.00
56334;BME280;42240;53.626;55.886;2023-01-29T08:13:17;79055.00;;;-145.10;100.00
56334;BME280;42240;53.626;55.886;2023-01-29T08:14:49;79039.19;;;-145.10;100.00
56334;BME280;42240;53.626;55.886;2023-01-29T08:16:23;79041.16;;;-145.10;100.00
56334;BME280;42240;53.626;55.886;2023-01-29T08:17:57;79057.00;;;-145.10;100.00
56334;BME280;42240;53.626;55.886;2023-01-29T08:19:30;79066.88;;;-145.10;100.00
56334;BME280;42240;53.626;55.886;2023-01-29T08:21:03;79057.00;;;-145.10;100.00
56334;BME280;42240;53.626;55.886;2023-01-29T08:22:36;79060.94;;;-145.10;100.00
56334;BME280;42240;53.626;55.886;2023-01-29T08:24:10;79215.28;;;-145.10;100.00
56334;BME280;42240;53.626;55.886;2023-01-29T08:25:43;79070.84;;;-145.10;100.00
56334;BME280;42240;53.626;55.886;2023-01-29T08:27:16;79084.69;;;-145.10;100.00
56334;BME280;42240;53.626;55.886;2023-01-29T08:28:49;79055.00;;;-145.10;100.00
56334;BME280;42240;53.626;55.886;2023-01-29T08:30:24;79053.03;;;-145.10;100.00
56334;BME280;42240;53.626;55.886;2023-01-29T08:31:58;79019.41;;;-145.10;100.00
56334;BME280;42240;53.626;55.886;2023-01-29T08:33:32;79009.50;;;-145.10;100.00
56334;BME280;42240;53.626;55.886;2023-01-29T08:35:11;79021.38;;;-145.10;100.00
56334;BME280;42240;53.626;55.886;2023-01-29T08:36:44;79013.47;;;-145.10;100.00
56334;BME280;42240;53.626;55.886;2023-01-29T08:38:17;79001.59;;;-145.10;100.00
56334;BME280;42240;53.626;55.886;2023-01-29T08:39:50;79001.59;;;-145.10;100.00
56334;BME280;42240;53.626;55.886;2023-01-29T08:41:23;79001.59;;;-145.10;100.00
56334;BME280;42240;53.626;55.886;2023-01-29T08:42:57;79005.53;;;-145.10;99.96
56334;BME280;42240;53.626;55.886;2023-01-29T08:44:34;78991.69;;;-145.10;100.00
56334;BME280;42240;53.626;55.886;2023-01-29T08:46:07;79017.41;;;-145.10;100.00
56334;BME280;42240;53.626;55.886;2023-01-29T08:47:45;79001.59;;;-145.10;100.00
56334;BME280;42240;53.626;55.886;2023-01-29T08:49:19;79009.50;;;-145.10;100.00
56334;BME280;42240;53.626;55.886;2023-01-29T08:50:56;78971.91;;;-145.10;99.89
56334;BME280;42240;53.626;55.886;2023-01-29T08:52:30;78985.75;;;-145.10;99.62
56334;BME280;42240;53.626;55.886;2023-01-29T08:54:03;78969.94;;;-145.10;99.98
56334;BME280;42240;53.626;55.886;2023-01-29T08:55:40;78969.94;;;-145.10;99.63
56334;BME280;42240;53.626;55.886;2023-01-29T08:57:14;78934.31;;;-145.10;99.22
56334;BME280;42240;53.626;55.886;2023-01-29T08:58:47;78926.41;;;-145.10;99.25